DLH578 EDDM-EDDF
Flight info
| Callsign | DLH578 |
|---|---|
| Flight time | N/A |
| Altitude | 24000 |
| Route | GIVMI6Q/08L GIVMI Y101 ERNAS T161 DEBHI DEBHI1B |
| Aircraft | A346/H-SDE2E3FGHIJ3J4J5M1RWXY/LB1D1 |
Departure
| Time | 2026-05-06 14:38 |
|---|---|
| Airport | Munich Airport (EDDM) |
Arrival
| Time | N/A |
|---|---|
| Airport | Frankfurt Main Airport (EDDF) |
| Time | Latitude | Longitude | Altitude | Speed | Heading |
|---|---|---|---|---|---|
| 2026-05-06 14:03 | 48.35111 | 11.79370 | 1475 ft | 0 kts | 263° |
| 2026-05-06 14:19 | 48.35112 | 11.79374 | 1475 ft | 1 kts | 263° |
| 2026-05-06 14:19 | 48.35114 | 11.79400 | 1463 ft | 3 kts | 263° |
| 2026-05-06 14:19 | 48.35116 | 11.79431 | 1463 ft | 3 kts | 263° |
| 2026-05-06 14:20 | 48.35118 | 11.79455 | 1463 ft | 2 kts | 264° |
| 2026-05-06 14:20 | 48.35118 | 11.79480 | 1463 ft | 3 kts | 283° |
| 2026-05-06 14:20 | 48.35113 | 11.79500 | 1463 ft | 3 kts | 310° |
| 2026-05-06 14:20 | 48.35102 | 11.79512 | 1463 ft | 3 kts | 338° |
| 2026-05-06 14:21 | 48.35084 | 11.79519 | 1463 ft | 3 kts | 352° |
| 2026-05-06 14:21 | 48.35064 | 11.79523 | 1463 ft | 3 kts | 354° |
| 2026-05-06 14:21 | 48.35055 | 11.79524 | 1463 ft | 1 kts | 353° |
| 2026-05-06 14:21 | 48.35053 | 11.79525 | 1463 ft | 0 kts | 353° |
| 2026-05-06 14:26 | 48.35058 | 11.79524 | 1467 ft | 2 kts | 353° |
| 2026-05-06 14:26 | 48.35086 | 11.79518 | 1464 ft | 6 kts | 353° |
| 2026-05-06 14:27 | 48.35138 | 11.79509 | 1465 ft | 9 kts | 353° |
| 2026-05-06 14:27 | 48.35210 | 11.79496 | 1471 ft | 12 kts | 354° |
| 2026-05-06 14:27 | 48.35300 | 11.79481 | 1466 ft | 14 kts | 354° |
| 2026-05-06 14:27 | 48.35409 | 11.79461 | 1465 ft | 17 kts | 352° |
| 2026-05-06 14:28 | 48.35538 | 11.79437 | 1469 ft | 20 kts | 354° |
| 2026-05-06 14:28 | 48.35683 | 11.79415 | 1465 ft | 22 kts | 353° |
| 2026-05-06 14:28 | 48.35823 | 11.79390 | 1470 ft | 14 kts | 352° |
| 2026-05-06 14:28 | 48.35878 | 11.79374 | 1466 ft | 9 kts | 342° |
| 2026-05-06 14:29 | 48.35948 | 11.79344 | 1472 ft | 12 kts | 350° |
| 2026-05-06 14:29 | 48.36036 | 11.79326 | 1464 ft | 13 kts | 348° |
| 2026-05-06 14:29 | 48.36083 | 11.79220 | 1471 ft | 14 kts | 266° |
| 2026-05-06 14:29 | 48.36070 | 11.79055 | 1474 ft | 17 kts | 264° |
| 2026-05-06 14:30 | 48.36056 | 11.78860 | 1474 ft | 20 kts | 264° |
| 2026-05-06 14:30 | 48.36038 | 11.78638 | 1476 ft | 22 kts | 263° |
| 2026-05-06 14:30 | 48.36021 | 11.78394 | 1467 ft | 20 kts | 263° |
| 2026-05-06 14:30 | 48.36007 | 11.78223 | 1475 ft | 17 kts | 263° |
| 2026-05-06 14:31 | 48.35992 | 11.78029 | 1466 ft | 20 kts | 263° |
| 2026-05-06 14:31 | 48.35974 | 11.77809 | 1470 ft | 22 kts | 263° |
| 2026-05-06 14:31 | 48.35956 | 11.77566 | 1472 ft | 24 kts | 264° |
| 2026-05-06 14:31 | 48.35937 | 11.77304 | 1471 ft | 26 kts | 264° |
| 2026-05-06 14:32 | 48.35925 | 11.77146 | 1468 ft | 12 kts | 268° |
| 2026-05-06 14:32 | 48.35962 | 11.77031 | 1464 ft | 13 kts | 313° |
| 2026-05-06 14:32 | 48.36053 | 11.76971 | 1464 ft | 16 kts | 351° |
| 2026-05-06 14:32 | 48.36119 | 11.76956 | 1467 ft | 6 kts | 352° |
| 2026-05-06 14:33 | 48.36121 | 11.76956 | 1469 ft | 0 kts | 352° |
| 2026-05-06 14:35 | 48.36129 | 11.76954 | 1470 ft | 2 kts | 352° |
| 2026-05-06 14:35 | 48.36156 | 11.76949 | 1466 ft | 5 kts | 352° |
| 2026-05-06 14:35 | 48.36201 | 11.76939 | 1465 ft | 8 kts | 352° |
| 2026-05-06 14:35 | 48.36235 | 11.76932 | 1474 ft | 5 kts | 352° |
| 2026-05-06 14:36 | 48.36265 | 11.76928 | 1472 ft | 3 kts | 16° |
| 2026-05-06 14:36 | 48.36286 | 11.76951 | 1463 ft | 3 kts | 41° |
| 2026-05-06 14:36 | 48.36293 | 11.76975 | 1468 ft | 2 kts | 81° |
| 2026-05-06 14:36 | 48.36293 | 11.76980 | 1468 ft | 0 kts | 81° |
| 2026-05-06 14:37 | 48.36295 | 11.77000 | 1471 ft | 12 kts | 82° |
| 2026-05-06 14:37 | 48.36333 | 11.77477 | 1478 ft | 80 kts | 83° |
| 2026-05-06 14:37 | 48.36424 | 11.78655 | 1463 ft | 141 kts | 83° |
| 2026-05-06 14:38 | 48.36553 | 11.80339 | 1526 ft | 183 kts | 83° |
| 2026-05-06 14:38 | 48.36694 | 11.82302 | 2151 ft | 188 kts | 83° |
| 2026-05-06 14:38 | 48.36841 | 11.84224 | 2957 ft | 188 kts | 82° |
| 2026-05-06 14:38 | 48.37197 | 11.86171 | 3493 ft | 201 kts | 65° |
| 2026-05-06 14:39 | 48.38016 | 11.87943 | 3911 ft | 215 kts | 46° |
| 2026-05-06 14:39 | 48.39313 | 11.89274 | 4269 ft | 239 kts | 24° |
| 2026-05-06 14:39 | 48.41016 | 11.89787 | 4646 ft | 263 kts | 359° |
| 2026-05-06 14:39 | 48.42836 | 11.89094 | 5174 ft | 279 kts | 331° |
| 2026-05-06 14:40 | 48.44311 | 11.87167 | 6019 ft | 281 kts | 303° |
| 2026-05-06 14:40 | 48.45053 | 11.84428 | 6898 ft | 279 kts | 278° |
| 2026-05-06 14:40 | 48.45417 | 11.81547 | 7845 ft | 281 kts | 284° |
| 2026-05-06 14:40 | 48.46331 | 11.78911 | 8765 ft | 288 kts | 303° |
| 2026-05-06 14:41 | 48.47575 | 11.76522 | 9714 ft | 291 kts | 305° |
| 2026-05-06 14:41 | 48.48879 | 11.74135 | 10554 ft | 295 kts | 306° |
| 2026-05-06 14:41 | 48.50238 | 11.71697 | 11494 ft | 298 kts | 306° |
| 2026-05-06 14:41 | 48.51592 | 11.69302 | 12412 ft | 301 kts | 306° |
| 2026-05-06 14:42 | 48.52965 | 11.66883 | 13410 ft | 303 kts | 306° |
| 2026-05-06 14:42 | 48.54341 | 11.64454 | 14290 ft | 305 kts | 305° |
| 2026-05-06 14:42 | 48.55727 | 11.61999 | 15097 ft | 309 kts | 305° |
| 2026-05-06 14:42 | 48.57140 | 11.59495 | 15872 ft | 314 kts | 304° |
| 2026-05-06 14:43 | 48.58600 | 11.56900 | 16444 ft | 328 kts | 304° |
| 2026-05-06 14:43 | 48.60091 | 11.54244 | 16842 ft | 345 kts | 305° |
| 2026-05-06 14:43 | 48.61709 | 11.51362 | 17221 ft | 363 kts | 305° |
| 2026-05-06 14:43 | 48.63387 | 11.48378 | 17552 ft | 380 kts | 305° |
| 2026-05-06 14:44 | 48.65114 | 11.45304 | 17869 ft | 397 kts | 305° |
| 2026-05-06 14:44 | 48.66932 | 11.42070 | 18337 ft | 408 kts | 305° |
| 2026-05-06 14:44 | 48.68844 | 11.38842 | 18999 ft | 415 kts | 309° |
| 2026-05-06 14:45 | 48.73324 | 11.33108 | 20512 ft | 428 kts | 320° |
| 2026-05-06 14:45 | 48.75795 | 11.30577 | 21249 ft | 432 kts | 322° |
| 2026-05-06 14:45 | 48.78398 | 11.27987 | 21967 ft | 437 kts | 322° |
| 2026-05-06 14:45 | 48.80975 | 11.25415 | 22648 ft | 441 kts | 322° |
| 2026-05-06 14:46 | 48.83506 | 11.22726 | 23294 ft | 444 kts | 319° |
| 2026-05-06 14:46 | 48.85946 | 11.19791 | 23658 ft | 445 kts | 315° |
| 2026-05-06 14:46 | 48.87573 | 11.17632 | 23749 ft | 445 kts | 313° |
| 2026-05-06 14:47 | 48.88916 | 11.15781 | 23743 ft | 444 kts | 312° |
| 2026-05-06 14:47 | 48.91923 | 11.11559 | 23748 ft | 443 kts | 312° |
| 2026-05-06 14:47 | 48.94189 | 11.08371 | 23758 ft | 443 kts | 312° |
| 2026-05-06 14:47 | 48.96454 | 11.05196 | 23756 ft | 443 kts | 312° |
| 2026-05-06 14:48 | 48.98718 | 11.02013 | 23783 ft | 441 kts | 313° |
| 2026-05-06 14:48 | 49.00985 | 10.98830 | 23777 ft | 440 kts | 313° |
| 2026-05-06 14:48 | 49.02475 | 10.96741 | 23795 ft | 439 kts | 313° |
| 2026-05-06 14:48 | 49.04723 | 10.93590 | 23788 ft | 439 kts | 313° |
| 2026-05-06 14:49 | 49.06967 | 10.90434 | 23787 ft | 438 kts | 313° |
| 2026-05-06 14:49 | 49.09208 | 10.87277 | 23787 ft | 438 kts | 313° |
| 2026-05-06 14:49 | 49.11452 | 10.84108 | 23781 ft | 438 kts | 313° |
| 2026-05-06 14:49 | 49.13689 | 10.80943 | 23805 ft | 438 kts | 313° |
| 2026-05-06 14:50 | 49.15924 | 10.77775 | 23800 ft | 438 kts | 313° |
| 2026-05-06 14:50 | 49.18164 | 10.74598 | 23798 ft | 438 kts | 313° |
| 2026-05-06 14:50 | 49.20359 | 10.71370 | 23799 ft | 437 kts | 311° |
| 2026-05-06 14:50 | 49.22488 | 10.68057 | 23801 ft | 436 kts | 311° |
| 2026-05-06 14:51 | 49.24597 | 10.64723 | 23796 ft | 435 kts | 311° |
| 2026-05-06 14:51 | 49.26702 | 10.61397 | 23801 ft | 435 kts | 311° |
| 2026-05-06 14:51 | 49.28809 | 10.58069 | 23796 ft | 435 kts | 311° |
| 2026-05-06 14:51 | 49.30916 | 10.54743 | 23793 ft | 435 kts | 311° |
| 2026-05-06 14:52 | 49.33027 | 10.51405 | 23791 ft | 435 kts | 311° |
| 2026-05-06 14:52 | 49.35075 | 10.48004 | 23791 ft | 433 kts | 308° |
| 2026-05-06 14:52 | 49.36992 | 10.44434 | 23792 ft | 432 kts | 305° |
| 2026-05-06 14:52 | 49.38776 | 10.40714 | 23792 ft | 431 kts | 302° |
| 2026-05-06 14:53 | 49.40476 | 10.37003 | 23795 ft | 431 kts | 302° |
| 2026-05-06 14:53 | 49.42196 | 10.33214 | 23788 ft | 431 kts | 302° |
| 2026-05-06 14:53 | 49.43915 | 10.29425 | 23782 ft | 432 kts | 302° |
| 2026-05-06 14:53 | 49.45636 | 10.25629 | 23217 ft | 433 kts | 302° |
| 2026-05-06 14:54 | 49.47371 | 10.21801 | 22364 ft | 437 kts | 302° |
| 2026-05-06 14:54 | 49.49112 | 10.17962 | 21617 ft | 437 kts | 302° |
| 2026-05-06 14:54 | 49.50853 | 10.14120 | 20892 ft | 437 kts | 302° |
| 2026-05-06 14:54 | 49.52597 | 10.10267 | 20176 ft | 436 kts | 302° |
| 2026-05-06 14:55 | 49.54329 | 10.06434 | 19527 ft | 434 kts | 302° |
| 2026-05-06 14:55 | 49.56045 | 10.02634 | 19149 ft | 426 kts | 302° |
| 2026-05-06 14:55 | 49.57723 | 9.98912 | 18732 ft | 419 kts | 302° |
| 2026-05-06 14:55 | 49.59372 | 9.95247 | 18311 ft | 413 kts | 302° |
| 2026-05-06 14:56 | 49.60996 | 9.91632 | 17863 ft | 408 kts | 302° |
| 2026-05-06 14:56 | 49.62601 | 9.88046 | 17398 ft | 402 kts | 302° |
| 2026-05-06 14:56 | 49.64185 | 9.84509 | 16955 ft | 397 kts | 302° |
| 2026-05-06 14:56 | 49.65744 | 9.81024 | 16537 ft | 392 kts | 302° |
| 2026-05-06 14:57 | 49.67286 | 9.77574 | 16111 ft | 388 kts | 302° |
| 2026-05-06 14:57 | 49.68803 | 9.74172 | 15687 ft | 383 kts | 302° |
| 2026-05-06 14:57 | 49.70310 | 9.70788 | 15287 ft | 380 kts | 302° |
| 2026-05-06 14:57 | 49.71779 | 9.67485 | 14882 ft | 376 kts | 302° |
| 2026-05-06 14:58 | 49.73279 | 9.64109 | 14470 ft | 373 kts | 302° |
| 2026-05-06 14:58 | 49.74744 | 9.60808 | 14065 ft | 371 kts | 302° |
| 2026-05-06 14:58 | 49.74976 | 9.60284 | 13987 ft | 370 kts | 302° |
| 2026-05-06 14:59 | 49.76437 | 9.56987 | 13579 ft | 367 kts | 302° |
| 2026-05-06 14:59 | 49.77875 | 9.53738 | 13144 ft | 364 kts | 302° |
| 2026-05-06 14:59 | 49.79307 | 9.50494 | 12724 ft | 361 kts | 302° |
| 2026-05-06 14:59 | 49.80717 | 9.47302 | 12328 ft | 357 kts | 302° |
| 2026-05-06 15:00 | 49.82116 | 9.44130 | 11927 ft | 354 kts | 302° |
| 2026-05-06 15:00 | 49.83500 | 9.40987 | 11533 ft | 350 kts | 302° |
| 2026-05-06 15:00 | 49.84856 | 9.37876 | 11133 ft | 347 kts | 300° |
| 2026-05-06 15:00 | 49.86019 | 9.34624 | 10739 ft | 342 kts | 294° |
| 2026-05-06 15:01 | 49.86915 | 9.31158 | 10575 ft | 349 kts | 287° |
| 2026-05-06 15:01 | 49.87640 | 9.27550 | 10615 ft | 351 kts | 285° |
| 2026-05-06 15:01 | 49.88326 | 9.23925 | 10636 ft | 350 kts | 284° |
| 2026-05-06 15:01 | 49.89010 | 9.20268 | 10663 ft | 351 kts | 284° |
| 2026-05-06 15:02 | 49.89701 | 9.16619 | 10691 ft | 350 kts | 284° |
| 2026-05-06 15:02 | 49.90389 | 9.12990 | 10713 ft | 350 kts | 284° |
| 2026-05-06 15:02 | 49.91072 | 9.09366 | 10738 ft | 351 kts | 284° |
| 2026-05-06 15:02 | 49.91766 | 9.05696 | 10757 ft | 352 kts | 284° |
| 2026-05-06 15:03 | 49.92462 | 9.02039 | 10775 ft | 351 kts | 284° |
| 2026-05-06 15:03 | 49.93156 | 8.98396 | 10768 ft | 352 kts | 287° |
| 2026-05-06 15:03 | 49.94286 | 8.95083 | 10750 ft | 356 kts | 307° |
| 2026-05-06 15:03 | 49.96190 | 8.92592 | 10766 ft | 361 kts | 329° |
| 2026-05-06 15:04 | 49.98594 | 8.91347 | 10767 ft | 366 kts | 351° |
| 2026-05-06 15:04 | 50.01157 | 8.91587 | 10775 ft | 371 kts | 13° |
| 2026-05-06 15:04 | 50.03479 | 8.93298 | 10770 ft | 371 kts | 36° |
| 2026-05-06 15:04 | 50.05220 | 8.96179 | 10512 ft | 363 kts | 58° |
| 2026-05-06 15:05 | 50.06134 | 8.99822 | 9943 ft | 361 kts | 82° |
| 2026-05-06 15:05 | 50.06362 | 9.03628 | 9794 ft | 348 kts | 85° |
| 2026-05-06 15:05 | 50.06859 | 9.07267 | 9581 ft | 339 kts | 75° |
| 2026-05-06 15:05 | 50.07534 | 9.10741 | 9380 ft | 329 kts | 73° |
| 2026-05-06 15:06 | 50.08247 | 9.14104 | 9200 ft | 319 kts | 72° |
| 2026-05-06 15:06 | 50.08974 | 9.17334 | 8988 ft | 310 kts | 71° |
| 2026-05-06 15:06 | 50.09691 | 9.20450 | 8813 ft | 301 kts | 71° |
| 2026-05-06 15:06 | 50.10396 | 9.23489 | 8552 ft | 295 kts | 71° |
| 2026-05-06 15:07 | 50.11094 | 9.26491 | 8168 ft | 295 kts | 71° |
| 2026-05-06 15:07 | 50.11789 | 9.29502 | 7810 ft | 293 kts | 71° |
| 2026-05-06 15:07 | 50.12479 | 9.32485 | 7460 ft | 291 kts | 71° |
| 2026-05-06 15:07 | 50.13163 | 9.35454 | 7095 ft | 291 kts | 71° |
| 2026-05-06 15:08 | 50.13846 | 9.38417 | 6757 ft | 289 kts | 71° |
| 2026-05-06 15:08 | 50.14524 | 9.41369 | 6427 ft | 288 kts | 71° |
| 2026-05-06 15:08 | 50.15202 | 9.44300 | 6106 ft | 287 kts | 69° |
| 2026-05-06 15:08 | 50.16271 | 9.46895 | 5695 ft | 287 kts | 39° |
| 2026-05-06 15:09 | 50.18036 | 9.48177 | 5329 ft | 280 kts | 4° |
| 2026-05-06 15:09 | 50.19920 | 9.47810 | 4942 ft | 272 kts | 335° |
| 2026-05-06 15:09 | 50.21473 | 9.46219 | 4620 ft | 265 kts | 310° |
| 2026-05-06 15:09 | 50.22451 | 9.43838 | 4284 ft | 259 kts | 287° |
| 2026-05-06 15:10 | 50.22705 | 9.41111 | 3992 ft | 251 kts | 263° |
| 2026-05-06 15:10 | 50.22289 | 9.38466 | 4004 ft | 252 kts | 251° |
| 2026-05-06 15:10 | 50.21742 | 9.35905 | 3993 ft | 251 kts | 251° |
| 2026-05-06 15:10 | 50.21188 | 9.33279 | 3998 ft | 250 kts | 251° |
| 2026-05-06 15:11 | 50.20660 | 9.30719 | 3992 ft | 251 kts | 251° |
| 2026-05-06 15:11 | 50.20129 | 9.28119 | 3981 ft | 251 kts | 252° |
| 2026-05-06 15:11 | 50.19601 | 9.25510 | 3991 ft | 251 kts | 251° |
| 2026-05-06 15:11 | 50.19076 | 9.22909 | 3984 ft | 251 kts | 251° |
| 2026-05-06 15:12 | 50.18502 | 9.20334 | 3989 ft | 252 kts | 249° |
| 2026-05-06 15:12 | 50.17908 | 9.17769 | 3999 ft | 250 kts | 249° |
| 2026-05-06 15:12 | 50.17315 | 9.15217 | 3993 ft | 249 kts | 249° |
| 2026-05-06 15:12 | 50.16722 | 9.12667 | 3991 ft | 251 kts | 249° |
| 2026-05-06 15:13 | 50.16124 | 9.10104 | 3991 ft | 251 kts | 249° |
| 2026-05-06 15:13 | 50.15522 | 9.07528 | 3991 ft | 253 kts | 250° |
| 2026-05-06 15:13 | 50.14923 | 9.04947 | 3989 ft | 253 kts | 249° |
| 2026-05-06 15:13 | 50.14322 | 9.02367 | 3988 ft | 252 kts | 249° |
| 2026-05-06 15:14 | 50.13722 | 8.99801 | 4000 ft | 249 kts | 249° |
| 2026-05-06 15:14 | 50.13143 | 8.97326 | 3984 ft | 235 kts | 249° |
| 2026-05-06 15:14 | 50.12602 | 8.95010 | 3976 ft | 221 kts | 249° |
| 2026-05-06 15:14 | 50.12073 | 8.92761 | 3994 ft | 220 kts | 249° |
| 2026-05-06 15:15 | 50.11548 | 8.90522 | 3990 ft | 220 kts | 249° |
| 2026-05-06 15:15 | 50.11019 | 8.88277 | 3991 ft | 219 kts | 249° |
| 2026-05-06 15:15 | 50.10501 | 8.86076 | 3989 ft | 215 kts | 249° |
| 2026-05-06 15:15 | 50.10006 | 8.83873 | 3858 ft | 214 kts | 250° |
| 2026-05-06 15:16 | 50.09511 | 8.81668 | 3477 ft | 219 kts | 250° |
| 2026-05-06 15:16 | 50.08989 | 8.79429 | 3179 ft | 219 kts | 250° |
| 2026-05-06 15:16 | 50.08457 | 8.77205 | 2885 ft | 217 kts | 250° |
| 2026-05-06 15:16 | 50.07943 | 8.75077 | 2602 ft | 209 kts | 250° |
| 2026-05-06 15:17 | 50.07438 | 8.72994 | 2352 ft | 201 kts | 251° |
| 2026-05-06 15:17 | 50.06962 | 8.71011 | 2097 ft | 190 kts | 251° |
| 2026-05-06 15:17 | 50.06511 | 8.69130 | 1803 ft | 180 kts | 251° |
| 2026-05-06 15:17 | 50.06085 | 8.67357 | 1560 ft | 166 kts | 251° |
| 2026-05-06 15:18 | 50.05695 | 8.65733 | 1365 ft | 152 kts | 252° |
| 2026-05-06 15:18 | 50.05337 | 8.64234 | 1146 ft | 146 kts | 250° |
| 2026-05-06 15:18 | 50.04950 | 8.62572 | 1595 ft | 173 kts | 252° |
| 2026-05-06 15:18 | 50.04527 | 8.60748 | 2571 ft | 184 kts | 251° |
| 2026-05-06 15:19 | 50.04081 | 8.58861 | 3737 ft | 188 kts | 249° |
| 2026-05-06 15:19 | 50.03576 | 8.56784 | 4361 ft | 229 kts | 248° |
| 2026-05-06 15:19 | 50.02956 | 8.54259 | 4191 ft | 253 kts | 249° |
| 2026-05-06 15:19 | 50.02346 | 8.51742 | 4038 ft | 242 kts | 249° |
| 2026-05-06 15:20 | 50.01753 | 8.49372 | 4003 ft | 227 kts | 246° |
| 2026-05-06 15:20 | 50.01073 | 8.47203 | 3976 ft | 219 kts | 241° |
| 2026-05-06 15:20 | 50.00281 | 8.45143 | 3988 ft | 227 kts | 234° |
| 2026-05-06 15:20 | 49.99059 | 8.43661 | 4579 ft | 231 kts | 199° |
| 2026-05-06 15:21 | 49.97413 | 8.43596 | 4964 ft | 254 kts | 167° |
| 2026-05-06 15:21 | 49.95857 | 8.45051 | 4999 ft | 271 kts | 133° |
| 2026-05-06 15:21 | 49.95073 | 8.47715 | 5012 ft | 278 kts | 100° |
| 2026-05-06 15:21 | 49.94924 | 8.50737 | 5041 ft | 282 kts | 94° |
| 2026-05-06 15:22 | 49.94822 | 8.53775 | 5016 ft | 280 kts | 95° |
| 2026-05-06 15:22 | 49.94707 | 8.56801 | 5001 ft | 280 kts | 95° |
| 2026-05-06 15:22 | 49.94569 | 8.59824 | 5000 ft | 280 kts | 96° |
| 2026-05-06 15:22 | 49.94421 | 8.62862 | 4994 ft | 280 kts | 96° |
| 2026-05-06 15:23 | 49.94264 | 8.65899 | 4999 ft | 280 kts | 97° |
| 2026-05-06 15:23 | 49.94104 | 8.68905 | 5000 ft | 280 kts | 97° |
| 2026-05-06 15:23 | 49.94013 | 8.71942 | 4983 ft | 282 kts | 84° |
| 2026-05-06 15:23 | 49.94695 | 8.74784 | 4993 ft | 284 kts | 58° |
| 2026-05-06 15:24 | 49.95832 | 8.77310 | 5004 ft | 285 kts | 53° |
| 2026-05-06 15:24 | 49.97010 | 8.79785 | 4997 ft | 284 kts | 54° |
| 2026-05-06 15:24 | 49.98144 | 8.82310 | 4999 ft | 285 kts | 56° |
| 2026-05-06 15:24 | 49.99234 | 8.84897 | 4997 ft | 284 kts | 57° |
| 2026-05-06 15:25 | 50.00290 | 8.87494 | 4994 ft | 285 kts | 58° |
| 2026-05-06 15:25 | 50.01332 | 8.90103 | 4994 ft | 285 kts | 58° |
| 2026-05-06 15:25 | 50.02369 | 8.92717 | 4994 ft | 285 kts | 58° |
| 2026-05-06 15:25 | 50.03381 | 8.95354 | 4998 ft | 284 kts | 60° |
| 2026-05-06 15:26 | 50.04313 | 8.98083 | 4995 ft | 283 kts | 64° |
| 2026-05-06 15:26 | 50.05122 | 9.00877 | 5003 ft | 283 kts | 68° |
| 2026-05-06 15:26 | 50.05817 | 9.03717 | 4995 ft | 271 kts | 70° |
| 2026-05-06 15:26 | 50.06448 | 9.06425 | 4889 ft | 261 kts | 71° |
| 2026-05-06 15:27 | 50.07055 | 9.09049 | 4699 ft | 253 kts | 71° |
| 2026-05-06 15:27 | 50.07645 | 9.11603 | 4506 ft | 248 kts | 71° |
| 2026-05-06 15:27 | 50.08366 | 9.14032 | 4151 ft | 249 kts | 49° |
| 2026-05-06 15:27 | 50.09782 | 9.15415 | 3975 ft | 240 kts | 5° |
| 2026-05-06 15:28 | 50.11404 | 9.15156 | 4016 ft | 235 kts | 338° |
| 2026-05-06 15:28 | 50.12942 | 9.14267 | 4000 ft | 236 kts | 334° |
| 2026-05-06 15:28 | 50.14326 | 9.12963 | 3990 ft | 231 kts | 313° |
| 2026-05-06 15:28 | 50.15258 | 9.10960 | 3993 ft | 226 kts | 289° |
| 2026-05-06 15:29 | 50.15586 | 9.08604 | 3998 ft | 223 kts | 267° |
| 2026-05-06 15:29 | 50.15296 | 9.06245 | 4004 ft | 221 kts | 250° |
| 2026-05-06 15:29 | 50.14763 | 9.03998 | 4003 ft | 221 kts | 248° |
| 2026-05-06 15:29 | 50.14212 | 9.01761 | 3995 ft | 221 kts | 248° |
| 2026-05-06 15:30 | 50.13670 | 8.99519 | 4005 ft | 222 kts | 249° |
| 2026-05-06 15:30 | 50.13134 | 8.97271 | 4004 ft | 219 kts | 249° |
| 2026-05-06 15:30 | 50.12604 | 8.95027 | 4006 ft | 221 kts | 249° |
| 2026-05-06 15:30 | 50.12073 | 8.92776 | 4008 ft | 216 kts | 249° |
| 2026-05-06 15:31 | 50.11568 | 8.90625 | 3985 ft | 203 kts | 249° |
| 2026-05-06 15:31 | 50.11092 | 8.88590 | 3993 ft | 199 kts | 250° |
| 2026-05-06 15:31 | 50.10644 | 8.86549 | 4001 ft | 200 kts | 250° |
| 2026-05-06 15:32 | 50.09709 | 8.82432 | 3587 ft | 199 kts | 249° |
| 2026-05-06 15:32 | 50.09229 | 8.80415 | 3334 ft | 198 kts | 250° |
| 2026-05-06 15:32 | 50.08750 | 8.78424 | 3103 ft | 192 kts | 249° |
| 2026-05-06 15:32 | 50.08289 | 8.76517 | 2851 ft | 183 kts | 250° |
| 2026-05-06 15:33 | 50.07849 | 8.74694 | 2587 ft | 176 kts | 250° |
| 2026-05-06 15:33 | 50.07417 | 8.72911 | 2339 ft | 172 kts | 251° |
| 2026-05-06 15:33 | 50.07002 | 8.71180 | 2100 ft | 169 kts | 252° |
| 2026-05-06 15:33 | 50.06601 | 8.69503 | 1901 ft | 164 kts | 252° |
| 2026-05-06 15:34 | 50.06212 | 8.67887 | 1653 ft | 154 kts | 251° |
| 2026-05-06 15:34 | 50.05840 | 8.66375 | 1381 ft | 145 kts | 252° |
| 2026-05-06 15:34 | 50.05489 | 8.64924 | 1208 ft | 143 kts | 252° |
| 2026-05-06 15:34 | 50.05149 | 8.63461 | 1029 ft | 143 kts | 251° |
| 2026-05-06 15:35 | 50.04808 | 8.61978 | 809 ft | 144 kts | 252° |
| 2026-05-06 15:35 | 50.04461 | 8.60530 | 647 ft | 143 kts | 249° |
| 2026-05-06 15:35 | 50.04093 | 8.59048 | 482 ft | 140 kts | 250° |
| 2026-05-06 15:35 | 50.03751 | 8.57637 | 372 ft | 126 kts | 250° |